createdAt,value
2022-08-06T00:00:03.488Z,73.06
2022-08-06T00:00:29.925Z,73.46
2022-08-06T00:01:29.104Z,73.19
2022-08-06T00:02:31.351Z,73.13
2022-08-06T00:03:29.363Z,73.45
2022-08-06T00:04:29.415Z,73.68
2022-08-06T00:05:30.001Z,73.47
2022-08-06T00:06:30.686Z,73.41
2022-08-06T00:07:35.788Z,73.34
2022-08-06T00:08:31.013Z,73.33
2022-08-06T00:09:30.042Z,73.07
2022-08-06T00:10:30.692Z,73.11
2022-08-06T00:11:30.285Z,73.77
2022-08-06T00:12:30.838Z,73.54
2022-08-06T00:13:30.562Z,73.82
2022-08-06T00:14:30.632Z,73.60
2022-08-06T00:16:06.107Z,73.66
2022-08-06T00:16:38.687Z,73.53
2022-08-06T00:17:33.095Z,73.52
2022-08-06T00:18:31.182Z,73.53
2022-08-06T00:19:57.812Z,73.62
2022-08-06T00:20:32.338Z,73.71
2022-08-06T00:21:40.987Z,73.74
2022-08-06T00:22:32.588Z,73.93
2022-08-06T00:23:35.141Z,74.38
2022-08-06T00:24:32.857Z,74.76
2022-08-06T00:25:35.678Z,74.79
2022-08-06T00:26:33.137Z,74.83
2022-08-06T00:27:38.650Z,74.95
2022-08-06T00:28:33.477Z,74.92
2022-08-06T00:29:47.175Z,75.04
2022-08-06T00:30:34.547Z,75.10
2022-08-06T00:31:32.728Z,75.08
2022-08-06T00:32:33.080Z,74.93
2022-08-06T00:33:50.219Z,74.79
2022-08-06T00:34:34.276Z,74.88
2022-08-06T00:35:33.190Z,74.95
2022-08-06T00:36:33.562Z,74.95
2022-08-06T00:37:56.877Z,75.00
2022-08-06T00:38:34.747Z,75.06
2022-08-06T00:39:33.741Z,75.34
2022-08-06T00:40:33.834Z,75.50
2022-08-06T00:41:41.514Z,75.72
2022-08-06T00:42:35.056Z,75.94
2022-08-06T00:43:39.730Z,76.14
2022-08-06T00:44:35.315Z,76.29
2022-08-06T00:45:37.946Z,76.35
2022-08-06T00:46:35.574Z,76.49
2022-08-06T00:48:02.399Z,76.44
2022-08-06T00:48:53.299Z,76.34
2022-08-06T00:49:48.676Z,76.30
2022-08-06T00:50:36.042Z,76.32
2022-08-06T00:51:50.421Z,76.41
2022-08-06T00:52:36.283Z,76.39
2022-08-06T00:53:35.425Z,76.70
2022-08-06T00:54:36.251Z,76.74
2022-08-06T00:55:36.385Z,76.56
2022-08-06T00:56:37.104Z,76.56
2022-08-06T00:57:35.871Z,76.70
2022-08-06T00:58:40.694Z,76.72
2022-08-06T00:59:37.132Z,76.87
2022-08-06T01:00:38.804Z,76.93
2022-08-06T01:01:50.073Z,77.01
2022-08-06T01:02:37.560Z,77.10
2022-08-06T01:03:41.529Z,77.22
2022-08-06T01:04:37.749Z,77.28
2022-08-06T01:06:53.243Z,77.19
2022-08-06T01:06:56.031Z,77.10
2022-08-06T01:07:52.420Z,77.11
2022-08-06T01:08:38.158Z,77.21
2022-08-06T01:09:46.058Z,77.39
2022-08-06T01:10:42.551Z,77.56
2022-08-06T01:11:38.538Z,77.78
2022-08-06T01:12:37.678Z,77.79
2022-08-06T01:14:03.075Z,77.71
2022-08-06T01:14:39.665Z,77.71
2022-08-06T01:16:07.825Z,77.65
2022-08-06T01:16:39.278Z,77.61
2022-08-06T01:17:38.703Z,77.55
2022-08-06T01:18:38.634Z,77.54
2022-08-06T01:21:22.088Z,77.53
2022-08-06T01:21:58.875Z,77.57
2022-08-06T01:21:59.357Z,77.54
2022-08-06T01:22:40.025Z,77.62
2022-08-06T01:23:39.106Z,77.66
2022-08-06T01:24:39.383Z,77.67
2022-08-06T01:25:47.515Z,77.68
2022-08-06T01:26:40.457Z,77.68
2022-08-06T01:27:42.679Z,77.73
2022-08-06T01:28:41.642Z,77.78
2022-08-06T01:29:39.978Z,77.99
2022-08-06T01:30:40.024Z,78.01
2022-08-06T01:31:40.081Z,77.86
2022-08-06T01:32:42.843Z,77.79
2022-08-06T01:33:42.076Z,77.94
2022-08-06T01:34:40.614Z,77.88
2022-08-06T01:35:47.910Z,77.88
2022-08-06T01:36:41.708Z,77.99
2022-08-06T01:37:41.822Z,78.11
2022-08-06T01:38:43.729Z,78.20
2022-08-06T01:40:02.246Z,78.24
2022-08-06T01:40:42.436Z,78.42
2022-08-06T01:41:58.034Z,78.46
2022-08-06T01:42:44.057Z,78.68
2022-08-06T01:44:04.899Z,78.75
2022-08-06T01:44:45.099Z,78.84
2022-08-06T01:45:54.842Z,78.90
2022-08-06T01:46:44.222Z,78.86
2022-08-06T01:47:53.773Z,78.82
2022-08-06T01:48:43.276Z,78.81
2022-08-06T01:50:01.867Z,78.76
2022-08-06T01:50:43.499Z,78.80
2022-08-06T01:52:14.091Z,78.82
2022-08-06T01:53:00.050Z,79.01
2022-08-06T01:54:05.446Z,79.20
2022-08-06T01:54:43.953Z,79.57
2022-08-06T01:55:59.087Z,79.84
2022-08-06T01:56:57.292Z,79.94
2022-08-06T01:58:19.538Z,80.00
2022-08-06T01:58:44.426Z,80.02
2022-08-06T01:59:43.505Z,80.19
2022-08-06T02:00:46.240Z,80.39
2022-08-06T02:01:54.573Z,80.52
2022-08-06T02:02:44.933Z,80.56
2022-08-06T02:03:49.997Z,80.53
2022-08-06T02:04:45.116Z,80.60
2022-08-06T02:05:53.681Z,80.58
2022-08-06T02:06:45.376Z,80.70
2022-08-06T02:08:33.751Z,80.86
2022-08-06T02:08:45.576Z,80.83
2022-08-06T02:09:44.748Z,80.79
2022-08-06T02:10:44.927Z,80.68
2022-08-06T02:12:04.016Z,80.56
2022-08-06T02:12:46.114Z,80.64
2022-08-06T02:13:46.981Z,80.73
2022-08-06T02:14:45.334Z,80.73
2022-08-06T02:15:58.689Z,80.67
2022-08-06T02:16:46.633Z,80.86
2022-08-06T02:18:03.492Z,80.96
2022-08-06T02:18:46.903Z,81.14
2022-08-06T02:19:48.050Z,81.24
2022-08-06T02:20:48.351Z,81.29
2022-08-06T02:21:50.088Z,81.30
2022-08-06T02:22:47.372Z,81.33
2022-08-06T02:23:46.647Z,81.35
2022-08-06T02:24:46.632Z,81.38
2022-08-06T02:25:53.666Z,81.38
2022-08-06T02:26:47.850Z,81.44
2022-08-06T02:27:53.375Z,81.35
2022-08-06T02:28:50.353Z,81.30
2022-08-06T02:30:06.153Z,81.32
2022-08-06T02:30:49.119Z,81.26
2022-08-06T02:31:50.838Z,81.22
2022-08-06T02:32:47.668Z,81.27
2022-08-06T02:34:02.312Z,81.32
2022-08-06T02:34:48.896Z,81.57
2022-08-06T02:35:50.841Z,81.74
2022-08-06T02:36:50.564Z,81.83
2022-08-06T02:38:02.715Z,81.69
2022-08-06T02:38:52.394Z,81.55
2022-08-06T02:39:52.314Z,81.46
2022-08-06T02:40:48.627Z,81.47
2022-08-06T02:41:53.754Z,81.59
2022-08-06T02:42:50.018Z,81.67
2022-08-06T02:43:49.015Z,81.62
2022-08-06T02:44:49.850Z,81.61
2022-08-06T02:45:54.432Z,81.67
2022-08-06T02:46:50.370Z,81.72
2022-08-06T02:48:00.429Z,81.64
2022-08-06T02:48:50.645Z,81.62
2022-08-06T02:49:57.523Z,81.54
2022-08-06T02:50:51.112Z,81.45
2022-08-06T02:52:11.769Z,81.38
2022-08-06T02:52:57.768Z,81.46
2022-08-06T02:54:05.229Z,81.58
2022-08-06T02:54:51.454Z,81.81
2022-08-06T02:55:50.484Z,81.94
2022-08-06T02:56:50.596Z,82.04
2022-08-06T02:57:51.897Z,82.03
2022-08-06T02:58:58.146Z,81.99
2022-08-06T02:59:53.696Z,81.98
2022-08-06T03:00:52.021Z,81.94
2022-08-06T03:01:51.352Z,81.90
2022-08-06T03:02:51.393Z,81.83
2022-08-06T03:03:54.961Z,81.72
2022-08-06T03:04:54.503Z,81.93
2022-08-06T03:05:54.499Z,81.87
2022-08-06T03:06:51.891Z,81.74
2022-08-06T03:07:52.001Z,81.72
2022-08-06T03:08:52.100Z,81.69
2022-08-06T03:09:52.220Z,81.79
2022-08-06T03:10:52.460Z,81.85
2022-08-06T03:11:52.450Z,81.96
2022-08-06T03:12:52.604Z,82.05
2022-08-06T03:13:52.731Z,82.15
2022-08-06T03:15:03.806Z,82.23
2022-08-06T03:15:59.975Z,82.30
2022-08-06T03:16:54.128Z,82.39
2022-08-06T03:17:53.243Z,82.37
2022-08-06T03:19:54.410Z,82.29
2022-08-06T03:19:59.094Z,82.28
2022-08-06T03:20:54.657Z,82.24
2022-08-06T03:21:55.693Z,82.18
2022-08-06T03:22:53.893Z,82.20
2022-08-06T03:23:53.990Z,82.24
2022-08-06T03:24:54.104Z,82.20
2022-08-06T03:25:54.257Z,82.14
2022-08-06T03:26:54.324Z,82.12
2022-08-06T03:28:02.142Z,82.11
2022-08-06T03:28:55.585Z,82.12
2022-08-06T03:29:58.493Z,82.10
2022-08-06T03:30:56.973Z,82.13
2022-08-06T03:31:58.761Z,82.14
2022-08-06T03:32:55.447Z,82.21
2022-08-06T03:33:55.193Z,82.22
2022-08-06T03:34:55.324Z,82.25
2022-08-06T03:35:55.479Z,82.24
2022-08-06T03:36:55.631Z,82.31
2022-08-06T03:37:59.210Z,82.42
2022-08-06T03:38:56.880Z,82.40
2022-08-06T03:39:56.052Z,82.32
2022-08-06T03:40:56.135Z,82.25
2022-08-06T03:42:08.963Z,82.15
2022-08-06T03:42:57.355Z,82.14
2022-08-06T03:44:04.681Z,82.09
2022-08-06T03:44:57.662Z,82.04
2022-08-06T03:45:57.745Z,81.99
2022-08-06T03:46:56.953Z,82.02
2022-08-06T03:48:07.752Z,82.00
2022-08-06T03:48:58.171Z,82.10
2022-08-06T03:49:57.325Z,82.14
2022-08-06T03:50:58.092Z,82.18
2022-08-06T03:51:57.663Z,82.31
2022-08-06T03:52:57.679Z,82.52
2022-08-06T03:53:57.788Z,82.65
2022-08-06T03:54:57.918Z,82.62
2022-08-06T03:55:58.048Z,82.56
2022-08-06T03:56:58.232Z,82.53
2022-08-06T03:57:58.318Z,82.47
2022-08-06T03:58:58.456Z,82.43
2022-08-06T04:00:00.921Z,82.55
2022-08-06T04:00:58.724Z,82.66
2022-08-06T04:01:58.968Z,82.62
2022-08-06T04:03:02.926Z,82.61
2022-08-06T04:03:59.110Z,82.71
2022-08-06T04:04:59.229Z,82.75
2022-08-06T04:05:59.366Z,82.84
2022-08-06T04:07:02.513Z,82.92
2022-08-06T04:07:59.668Z,82.95
2022-08-06T04:08:59.773Z,82.97
2022-08-06T04:10:01.220Z,83.02
2022-08-06T04:11:00.016Z,83.29
2022-08-06T04:12:36.329Z,83.53
2022-08-06T04:13:39.055Z,83.71
2022-08-06T04:14:06.887Z,83.91
2022-08-06T04:15:04.646Z,84.10
2022-08-06T04:16:02.190Z,84.32
2022-08-06T04:17:00.827Z,84.42
2022-08-06T04:18:00.923Z,84.47
2022-08-06T04:19:01.123Z,84.53
2022-08-06T04:20:01.165Z,84.60
2022-08-06T04:21:19.623Z,84.64
2022-08-06T04:23:05.772Z,84.68
2022-08-06T04:23:09.160Z,84.67
2022-08-06T04:24:02.804Z,84.63
2022-08-06T04:25:01.822Z,84.55
2022-08-06T04:26:01.960Z,84.51
2022-08-06T04:27:05.221Z,84.41
2022-08-06T04:28:03.220Z,84.31
2022-08-06T04:29:02.420Z,84.13
2022-08-06T04:30:03.406Z,84.03
2022-08-06T04:31:02.612Z,83.99
2022-08-06T04:32:19.420Z,84.01
2022-08-06T04:33:03.848Z,84.11
2022-08-06T04:34:03.064Z,84.24
2022-08-06T04:36:08.274Z,84.33
2022-08-06T04:36:17.454Z,84.46
2022-08-06T04:37:05.032Z,84.57
2022-08-06T04:38:03.517Z,84.63
2022-08-06T04:39:03.899Z,84.71
2022-08-06T04:40:04.799Z,84.80
2022-08-06T04:41:09.553Z,84.83
2022-08-06T04:42:05.794Z,84.87
2022-08-06T04:43:04.193Z,84.86
2022-08-06T04:44:04.417Z,84.79
2022-08-06T04:46:17.105Z,84.77
2022-08-06T04:46:18.067Z,84.84
2022-08-06T04:47:05.785Z,84.88
2022-08-06T04:48:04.856Z,84.90
2022-08-06T04:49:05.026Z,84.88
2022-08-06T04:50:07.664Z,84.92
2022-08-06T04:51:05.244Z,84.98
2022-08-06T04:52:36.195Z,85.03
2022-08-06T04:53:06.549Z,85.10
2022-08-06T04:54:05.714Z,85.12
2022-08-06T04:55:05.755Z,85.19
2022-08-06T04:56:06.906Z,85.14
2022-08-06T04:57:09.059Z,85.05
2022-08-06T04:58:08.407Z,85.07
2022-08-06T04:59:07.838Z,85.08
2022-08-06T05:00:06.493Z,85.06
2022-08-06T05:01:10.616Z,85.08
2022-08-06T05:02:06.673Z,85.14
2022-08-06T05:03:06.800Z,85.15
2022-08-06T05:04:15.477Z,85.26
2022-08-06T05:05:08.110Z,85.22
2022-08-06T05:06:07.557Z,85.17
2022-08-06T05:07:10.600Z,85.03
2022-08-06T05:08:08.430Z,84.97
2022-08-06T05:09:20.676Z,84.94
2022-08-06T05:10:08.800Z,84.89
2022-08-06T05:11:07.819Z,84.92
2022-08-06T05:12:07.952Z,84.88
2022-08-06T05:13:08.108Z,84.88
2022-08-06T05:14:08.346Z,84.91
2022-08-06T05:15:09.015Z,84.95
2022-08-06T05:16:08.439Z,84.94
2022-08-06T05:17:08.846Z,85.07
2022-08-06T05:18:08.690Z,85.18
2022-08-06T05:19:20.432Z,85.00
2022-08-06T05:20:26.519Z,85.11
2022-08-06T05:21:10.037Z,85.00
2022-08-06T05:22:12.261Z,84.90
2022-08-06T05:23:19.922Z,84.99
2022-08-06T05:24:10.463Z,84.94
2022-08-06T05:25:17.877Z,84.79
2022-08-06T05:26:11.050Z,84.84
2022-08-06T05:27:10.796Z,84.75
2022-08-06T05:28:12.469Z,84.25
2022-08-06T05:29:11.501Z,84.04
2022-08-06T05:30:10.240Z,83.71
2022-08-06T05:31:10.289Z,83.36
2022-08-06T05:32:10.405Z,83.22
2022-08-06T05:33:10.494Z,83.20
2022-08-06T05:34:11.607Z,82.72
2022-08-06T05:35:10.856Z,82.10
2022-08-06T05:36:19.727Z,82.00
2022-08-06T05:37:12.036Z,81.76
2022-08-06T05:38:11.508Z,80.68
2022-08-06T05:39:56.547Z,80.32
2022-08-06T05:40:12.390Z,80.47
2022-08-06T05:41:11.600Z,80.30
2022-08-06T05:42:11.706Z,79.59
2022-08-06T05:43:11.810Z,79.32
2022-08-06T05:44:11.892Z,79.50
2022-08-06T05:45:12.017Z,79.55
2022-08-06T05:46:12.142Z,79.45
2022-08-06T05:47:12.220Z,78.95
2022-08-06T05:48:12.338Z,78.86
2022-08-06T05:49:55.099Z,78.86
2022-08-06T05:50:13.575Z,78.66
2022-08-06T05:51:12.818Z,78.71
2022-08-06T05:52:12.974Z,78.41
2022-08-06T05:53:12.985Z,78.41
2022-08-06T05:54:13.089Z,78.42
2022-08-06T05:55:13.189Z,78.31
2022-08-06T05:56:13.498Z,77.84
2022-08-06T05:57:16.444Z,78.04
2022-08-06T05:58:13.718Z,78.05
2022-08-06T05:59:29.503Z,77.83
2022-08-06T06:00:41.588Z,78.46
2022-08-06T06:01:14.928Z,78.81
2022-08-06T06:02:14.112Z,78.00
2022-08-06T06:03:23.873Z,77.50
2022-08-06T06:04:15.380Z,77.72
2022-08-06T06:06:05.844Z,77.69
2022-08-06T06:06:17.669Z,76.44
2022-08-06T06:07:18.108Z,76.10
2022-08-06T06:08:15.920Z,75.83
2022-08-06T06:09:15.977Z,75.96
2022-08-06T06:10:16.494Z,76.37
2022-08-06T06:11:15.285Z,76.19
2022-08-06T06:12:17.817Z,75.68
2022-08-06T06:13:25.564Z,74.65
2022-08-06T06:14:16.746Z,74.75
2022-08-06T06:16:02.030Z,75.59
2022-08-06T06:16:22.367Z,74.79
2022-08-06T06:17:16.985Z,74.41
2022-08-06T06:18:34.108Z,75.42
2022-08-06T06:19:17.327Z,75.08
2022-08-06T06:20:16.415Z,73.70
2022-08-06T06:21:18.723Z,72.86
2022-08-06T06:22:17.575Z,73.88
2022-08-06T06:23:16.702Z,72.63
2022-08-06T06:24:19.615Z,72.92
2022-08-06T06:25:17.019Z,72.25
2022-08-06T06:26:32.628Z,73.08
2022-08-06T06:27:36.113Z,72.74
2022-08-06T06:28:27.870Z,71.33
2022-08-06T06:29:33.793Z,71.22
2022-08-06T06:30:33.239Z,72.13
2022-08-06T06:32:04.609Z,71.97
2022-08-06T06:32:30.752Z,70.85
2022-08-06T06:33:41.265Z,70.15
2022-08-06T06:34:19.154Z,71.53
2022-08-06T06:35:18.094Z,70.12
2022-08-06T06:36:18.211Z,70.14
2022-08-06T06:37:18.322Z,70.56
2022-08-06T06:38:18.544Z,71.22
2022-08-06T06:39:18.561Z,69.23
2022-08-06T06:40:18.824Z,68.30
2022-08-06T06:41:20.381Z,67.42
2022-08-06T06:42:32.713Z,69.45
2022-08-06T06:43:20.120Z,66.18
2022-08-06T06:44:24.250Z,66.94
2022-08-06T06:46:04.951Z,67.48
2022-08-06T06:46:36.476Z,65.03
2022-08-06T06:47:20.560Z,65.90
2022-08-06T06:48:20.820Z,66.78
2022-08-06T06:49:59.532Z,66.92
2022-08-06T06:50:20.987Z,69.37
2022-08-06T06:51:40.652Z,69.58
2022-08-06T06:52:26.752Z,69.53
2022-08-06T06:53:23.901Z,66.71
2022-08-06T06:54:23.103Z,66.14
2022-08-06T06:55:36.786Z,65.57
2022-08-06T06:56:22.010Z,66.98
2022-08-06T06:57:23.419Z,66.96
2022-08-06T06:58:24.598Z,65.95
2022-08-06T06:59:21.089Z,66.35
2022-08-06T07:00:46.317Z,66.37
2022-08-06T07:01:28.633Z,68.67
2022-08-06T07:02:23.795Z,66.77
2022-08-06T07:03:22.588Z,63.80
2022-08-06T07:04:22.658Z,64.78
2022-08-06T07:06:03.062Z,63.35
2022-08-06T07:06:31.596Z,64.41
2022-08-06T07:07:23.625Z,66.38
2022-08-06T07:08:30.251Z,65.53
2022-08-06T07:09:40.196Z,65.38
2022-08-06T07:10:23.378Z,63.37
2022-08-06T07:11:22.468Z,61.93
2022-08-06T07:12:22.587Z,62.36
2022-08-06T07:13:23.234Z,63.60
2022-08-06T07:14:24.812Z,63.88
2022-08-06T07:15:24.157Z,64.46
2022-08-06T07:16:35.753Z,62.91
2022-08-06T07:17:45.481Z,62.94
2022-08-06T07:18:28.477Z,64.48
2022-08-06T07:19:24.557Z,62.34
2022-08-06T07:20:26.080Z,62.00
2022-08-06T07:21:23.688Z,61.51
2022-08-06T07:22:24.255Z,62.20
2022-08-06T07:24:07.449Z,62.46
2022-08-06T07:24:36.769Z,62.10
2022-08-06T07:25:25.197Z,63.28
2022-08-06T07:26:24.322Z,61.67
2022-08-06T07:27:25.015Z,60.32
2022-08-06T07:28:25.590Z,60.20
2022-08-06T07:29:49.053Z,61.76
2022-08-06T07:30:26.084Z,60.44
2022-08-06T07:31:24.919Z,58.83
2022-08-06T07:32:31.253Z,59.48
2022-08-06T07:33:26.176Z,60.22
2022-08-06T07:34:25.309Z,59.81
2022-08-06T07:35:25.544Z,60.24
2022-08-06T07:36:26.790Z,62.22
2022-08-06T07:37:25.833Z,61.13
2022-08-06T07:38:26.768Z,59.72
2022-08-06T07:39:26.131Z,58.84
2022-08-06T07:40:28.577Z,58.54
2022-08-06T07:41:32.065Z,61.30
2022-08-06T07:42:27.358Z,58.45
2022-08-06T07:43:32.774Z,59.90
2022-08-06T07:44:29.257Z,60.19
2022-08-06T07:45:32.446Z,59.92
2022-08-06T07:46:27.845Z,59.04
2022-08-06T07:47:37.063Z,57.68
2022-08-06T07:48:28.114Z,57.39
2022-08-06T07:49:31.917Z,56.56
2022-08-06T07:50:28.515Z,56.89
2022-08-06T07:51:33.765Z,55.95
2022-08-06T07:52:28.883Z,56.81
2022-08-06T07:53:52.746Z,58.26
2022-08-06T07:54:34.282Z,58.61
2022-08-06T07:55:31.530Z,58.56
2022-08-06T07:56:29.650Z,57.76
2022-08-06T07:57:32.699Z,58.22
2022-08-06T07:58:30.628Z,56.62
2022-08-06T07:59:30.621Z,55.75
2022-08-06T08:00:28.915Z,54.61
2022-08-06T08:01:36.353Z,54.86
2022-08-06T08:02:30.274Z,55.40
2022-08-06T08:03:55.997Z,55.66
2022-08-06T08:04:35.788Z,56.02
2022-08-06T08:05:39.057Z,56.70
2022-08-06T08:06:32.039Z,57.67
2022-08-06T08:07:37.965Z,55.96
2022-08-06T08:08:30.671Z,57.00
2022-08-06T08:10:01.273Z,56.83
2022-08-06T08:10:30.843Z,55.11
2022-08-06T08:11:38.228Z,55.44
2022-08-06T08:12:34.765Z,57.08
2022-08-06T08:13:41.796Z,56.51
2022-08-06T08:14:31.273Z,56.37
2022-08-06T08:15:30.392Z,56.77
2022-08-06T08:16:32.755Z,54.12
2022-08-06T08:17:34.900Z,53.86
2022-08-06T08:18:30.783Z,52.35
2022-08-06T08:19:34.919Z,54.06
2022-08-06T08:20:33.974Z,52.31
2022-08-06T08:21:31.293Z,53.24
2022-08-06T08:22:31.312Z,54.61
2022-08-06T08:23:36.449Z,52.77
2022-08-06T08:24:32.594Z,53.56
2022-08-06T08:25:40.372Z,54.13
2022-08-06T08:27:01.961Z,54.68
2022-08-06T08:27:33.171Z,54.11
2022-08-06T08:28:32.292Z,53.75
2022-08-06T08:29:34.766Z,56.02
2022-08-06T08:30:32.326Z,52.98
2022-08-06T08:31:32.422Z,54.56
2022-08-06T08:32:32.563Z,52.58
2022-08-06T08:33:33.915Z,52.65
2022-08-06T08:34:33.836Z,52.12
2022-08-06T08:35:37.290Z,52.15
2022-08-06T08:36:34.061Z,53.32
2022-08-06T08:37:34.043Z,52.60
2022-08-06T08:38:33.334Z,53.22
2022-08-06T08:39:33.812Z,51.29
2022-08-06T08:40:33.561Z,52.75
2022-08-06T08:41:49.336Z,52.00
2022-08-06T08:42:36.421Z,51.36
2022-08-06T08:43:58.893Z,52.45
2022-08-06T08:44:35.119Z,54.47
2022-08-06T08:45:34.193Z,53.64
2022-08-06T08:46:37.794Z,53.44
2022-08-06T08:47:39.106Z,53.97
2022-08-06T08:48:35.609Z,54.65
2022-08-06T08:49:34.801Z,52.24
2022-08-06T08:50:34.890Z,52.81
2022-08-06T08:51:36.578Z,54.94
2022-08-06T08:52:36.103Z,53.65
2022-08-06T08:53:45.069Z,53.19
2022-08-06T08:54:36.400Z,52.79
2022-08-06T08:57:06.651Z,51.53
2022-08-06T08:57:10.097Z,53.16
2022-08-06T08:58:40.869Z,56.47
2022-08-06T08:59:01.887Z,51.02
2022-08-06T08:59:59.019Z,49.61
2022-08-06T09:00:37.140Z,49.89
2022-08-06T09:01:52.072Z,49.42
2022-08-06T09:02:37.470Z,48.77
2022-08-06T09:03:36.639Z,48.69
2022-08-06T09:04:36.691Z,49.03
2022-08-06T09:05:36.930Z,48.00
2022-08-06T09:06:39.660Z,48.70
2022-08-06T09:07:37.464Z,48.43
2022-08-06T09:08:58.861Z,46.98
2022-08-06T09:09:38.280Z,47.68
2022-08-06T09:10:38.589Z,46.84
2022-08-06T09:12:04.783Z,46.46
2022-08-06T09:12:45.976Z,45.66
2022-08-06T09:13:51.767Z,46.11
2022-08-06T09:14:38.849Z,46.40
2022-08-06T09:15:40.509Z,47.01
2022-08-06T09:16:38.190Z,49.89
2022-08-06T09:18:26.734Z,48.27
2022-08-06T09:18:39.359Z,49.46
2022-08-06T09:19:39.485Z,48.51
2022-08-06T09:20:45.765Z,47.92
2022-08-06T09:21:39.803Z,49.28
2022-08-06T09:22:38.873Z,50.97
2022-08-06T09:23:49.517Z,51.16
2022-08-06T09:24:40.341Z,50.14
2022-08-06T09:25:45.711Z,51.80
2022-08-06T09:26:54.178Z,48.87
2022-08-06T09:27:47.802Z,49.29
2022-08-06T09:28:40.607Z,49.59
2022-08-06T09:29:39.688Z,49.59
2022-08-06T09:30:40.816Z,49.94
2022-08-06T09:31:44.628Z,51.00
2022-08-06T09:32:56.800Z,52.32
2022-08-06T09:34:29.642Z,53.04
2022-08-06T09:34:50.372Z,53.09
2022-08-06T09:35:44.346Z,51.06
2022-08-06T09:36:40.621Z,51.03
2022-08-06T09:37:54.160Z,53.50
2022-08-06T09:38:42.034Z,52.61
2022-08-06T09:40:00.800Z,49.75
2022-08-06T09:40:43.273Z,49.49
2022-08-06T09:41:41.227Z,47.66
2022-08-06T09:42:41.351Z,49.57
2022-08-06T09:44:03.593Z,49.24
2022-08-06T09:44:42.687Z,46.08
2022-08-06T09:45:42.954Z,46.03
2022-08-06T09:46:41.876Z,47.41
2022-08-06T09:47:41.916Z,46.45
2022-08-06T09:48:47.691Z,47.21
2022-08-06T09:49:47.418Z,45.08
2022-08-06T09:50:44.050Z,45.62
2022-08-06T09:51:51.490Z,45.17
2022-08-06T09:52:43.546Z,45.01
2022-08-06T09:54:05.563Z,46.31
2022-08-06T09:54:43.837Z,46.34
2022-08-06T09:55:42.925Z,47.97
2022-08-06T09:56:44.955Z,48.56
2022-08-06T09:57:43.137Z,48.95
2022-08-06T09:58:43.435Z,51.25
2022-08-06T09:59:43.416Z,48.80
2022-08-06T10:00:46.406Z,50.09
2022-08-06T10:01:44.645Z,50.38
2022-08-06T10:02:50.962Z,48.27
2022-08-06T10:04:02.334Z,47.88
2022-08-06T10:04:45.042Z,47.14
2022-08-06T10:05:50.491Z,47.28
2022-08-06T10:06:45.226Z,48.20
2022-08-06T10:07:44.375Z,48.70
2022-08-06T10:08:49.552Z,48.49
2022-08-06T10:09:45.587Z,49.39
2022-08-06T10:10:45.145Z,48.45
2022-08-06T10:11:50.264Z,47.74
2022-08-06T10:12:45.966Z,48.91
2022-08-06T10:13:48.781Z,48.11
2022-08-06T10:14:45.164Z,48.30
2022-08-06T10:16:00.175Z,49.01
2022-08-06T10:16:46.456Z,49.56
2022-08-06T10:17:49.611Z,49.77
2022-08-06T10:18:55.190Z,48.50
2022-08-06T10:19:52.671Z,49.47
2022-08-06T10:20:48.205Z,49.96
2022-08-06T10:21:46.690Z,46.00
2022-08-06T10:22:46.263Z,46.88
2022-08-06T10:23:51.644Z,47.20
2022-08-06T10:24:48.663Z,46.71
2022-08-06T10:25:46.673Z,46.13
2022-08-06T10:26:46.964Z,44.12
2022-08-06T10:27:46.882Z,43.35
2022-08-06T10:28:47.985Z,44.72
2022-08-06T10:29:47.143Z,46.27
2022-08-06T10:30:47.253Z,44.52
2022-08-06T10:31:52.997Z,43.50
2022-08-06T10:32:48.464Z,44.48
2022-08-06T10:33:47.603Z,41.16
2022-08-06T10:34:48.746Z,42.51
2022-08-06T10:35:49.144Z,45.37
2022-08-06T10:36:48.998Z,43.81
2022-08-06T10:37:50.095Z,45.43
2022-08-06T10:38:52.778Z,45.42
2022-08-06T10:40:06.693Z,45.60
2022-08-06T10:40:57.251Z,44.38
2022-08-06T10:42:00.867Z,44.08
2022-08-06T10:42:49.722Z,45.48
2022-08-06T10:43:48.832Z,45.37
2022-08-06T10:44:48.942Z,43.51
2022-08-06T10:45:50.835Z,42.75
2022-08-06T10:46:49.184Z,42.55
2022-08-06T10:49:01.120Z,40.93
2022-08-06T10:50:23.906Z,41.27
2022-08-06T10:50:29.802Z,42.21
2022-08-06T10:50:56.180Z,41.52
2022-08-06T10:51:56.195Z,40.42
2022-08-06T10:52:51.113Z,39.58
2022-08-06T10:54:01.389Z,39.80
2022-08-06T10:54:51.765Z,37.53
2022-08-06T10:55:50.292Z,37.90
2022-08-06T10:56:50.372Z,36.93
2022-08-06T10:57:51.759Z,39.30
2022-08-06T10:58:50.641Z,40.09
2022-08-06T10:59:53.677Z,38.99
2022-08-06T11:00:53.213Z,40.13
2022-08-06T11:01:54.942Z,40.82
2022-08-06T11:02:56.556Z,41.55
2022-08-06T11:03:52.297Z,40.89
2022-08-06T11:04:51.321Z,40.12
2022-08-06T11:05:54.154Z,38.14
2022-08-06T11:06:52.814Z,39.14
2022-08-06T11:08:09.755Z,38.78
2022-08-06T11:08:59.254Z,39.41
2022-08-06T11:10:02.274Z,39.43
2022-08-06T11:10:53.160Z,37.10
2022-08-06T11:12:05.806Z,38.29
2022-08-06T11:12:53.310Z,38.05
2022-08-06T11:13:53.749Z,37.85
2022-08-06T11:14:52.617Z,40.95
2022-08-06T11:15:52.759Z,37.92
2022-08-06T11:16:52.940Z,39.90
2022-08-06T11:17:52.974Z,38.62
2022-08-06T11:18:53.136Z,37.41
2022-08-06T11:19:56.611Z,37.82
2022-08-06T11:20:53.379Z,36.95
2022-08-06T11:21:59.383Z,37.73
2022-08-06T11:22:59.705Z,38.65
2022-08-06T11:23:58.274Z,40.11
2022-08-06T11:24:54.827Z,38.18
2022-08-06T11:25:53.929Z,38.75
2022-08-06T11:27:01.450Z,39.76
2022-08-06T11:28:05.100Z,40.31
2022-08-06T11:28:55.318Z,40.25
2022-08-06T11:30:03.819Z,40.32
2022-08-06T11:30:55.587Z,40.65
2022-08-06T11:31:56.567Z,38.99
2022-08-06T11:32:54.815Z,39.96
2022-08-06T11:33:54.903Z,39.85
2022-08-06T11:34:55.036Z,40.08
2022-08-06T11:35:55.196Z,41.35
2022-08-06T11:36:57.649Z,44.29
2022-08-06T11:38:00.244Z,41.93
2022-08-06T11:38:59.385Z,43.09
2022-08-06T11:39:56.721Z,42.53
2022-08-06T11:40:55.792Z,43.25
2022-08-06T11:41:57.105Z,41.77
2022-08-06T11:42:55.972Z,42.12
2022-08-06T11:44:03.456Z,44.15
2022-08-06T11:44:58.836Z,43.59
2022-08-06T11:46:21.032Z,46.00
2022-08-06T11:46:57.488Z,45.11
2022-08-06T11:47:56.606Z,45.02
2022-08-06T11:48:56.727Z,47.36
2022-08-06T11:49:57.569Z,46.86
2022-08-06T11:50:56.986Z,45.53
2022-08-06T11:52:05.780Z,45.70
2022-08-06T11:52:58.295Z,45.17
2022-08-06T11:53:57.315Z,42.57
2022-08-06T11:54:57.435Z,45.63
2022-08-06T11:55:57.564Z,43.76
2022-08-06T11:56:57.675Z,40.29
2022-08-06T11:57:57.834Z,40.38
2022-08-06T11:58:57.945Z,42.89
2022-08-06T11:59:58.084Z,42.20
2022-08-06T12:00:58.225Z,40.40
2022-08-06T12:01:58.338Z,40.19
2022-08-06T12:02:58.529Z,41.18
2022-08-06T12:03:58.575Z,41.45
2022-08-06T12:04:58.704Z,40.87
2022-08-06T12:06:00.463Z,40.44
2022-08-06T12:06:58.942Z,41.24
2022-08-06T12:07:59.135Z,40.05
2022-08-06T12:08:59.195Z,43.85
2022-08-06T12:10:00.321Z,41.74
2022-08-06T12:10:59.455Z,41.41
2022-08-06T12:11:59.544Z,45.85
2022-08-06T12:12:59.814Z,42.62
2022-08-06T12:14:33.509Z,42.55
2022-08-06T12:15:06.626Z,40.91
2022-08-06T12:16:12.085Z,40.99
2022-08-06T12:17:02.762Z,40.56
2022-08-06T12:18:19.341Z,41.89
2022-08-06T12:19:01.474Z,40.80
2022-08-06T12:20:01.764Z,40.31
2022-08-06T12:21:00.754Z,41.06
2022-08-06T12:22:00.871Z,39.69
2022-08-06T12:23:01.015Z,41.33
2022-08-06T12:24:01.103Z,40.74
2022-08-06T12:25:09.825Z,37.18
2022-08-06T12:26:02.376Z,39.80
2022-08-06T12:27:01.513Z,38.11
2022-08-06T12:28:01.617Z,39.24
2022-08-06T12:29:01.804Z,38.02
2022-08-06T12:30:02.011Z,37.60
2022-08-06T12:31:06.022Z,35.75
2022-08-06T12:32:03.172Z,36.57
2022-08-06T12:33:02.214Z,35.04
2022-08-06T12:34:02.365Z,35.92
2022-08-06T12:35:02.642Z,35.51
2022-08-06T12:36:03.351Z,36.39
2022-08-06T12:37:02.731Z,36.28
2022-08-06T12:38:02.840Z,35.65
2022-08-06T12:39:02.995Z,39.42
2022-08-06T12:40:03.343Z,35.95
2022-08-06T12:41:09.587Z,35.69
2022-08-06T12:42:04.392Z,39.00
2022-08-06T12:43:03.532Z,38.57
2022-08-06T12:44:04.629Z,35.74
2022-08-06T12:45:03.782Z,36.52
2022-08-06T12:46:07.432Z,36.19
2022-08-06T12:47:05.109Z,36.27
2022-08-06T12:48:11.312Z,36.47
2022-08-06T12:49:05.263Z,37.46
2022-08-06T12:50:04.456Z,37.22
2022-08-06T12:51:11.559Z,38.97
2022-08-06T12:52:05.861Z,36.52
2022-08-06T12:53:04.791Z,39.38